Phoenix, Arizona
Traffic Map
Current Weather Conditions
Phoenix, Arizona
Scattered Clouds
Scattered Clouds
11°
Feels Like: 11°
Wind Chill: 11° Ceiling: Unl
Heat Index: 11° Visibility: 10mi
Dew Point: Wind: 5mph
Humidity: 71% Direction: 70° (ENE)
Pressure: 30.02in Gusts: 0mph
Raw Report DataKPHX 220751Z 07004KT 10SM FEW190 SCT250 11/06 A3002 RMK AO2 SLP160 T01110061
Traffic Incident Summary
Active as of:
Severity:
Category:
InformationThere was an issue retrieving the traffic information for this location. Please try a different location or try again shortly.
Advertisements
Track Severe Weather on mobile